sensor_id;sensor_type;location;lat;lon;timestamp;temperature;humidity
2647;DHT22;1333;50.958;6.770;2023-06-22T00:01:54;24.00;99.90
2647;DHT22;1333;50.958;6.770;2023-06-22T00:04:20;24.00;99.90
2647;DHT22;1333;50.958;6.770;2023-06-22T00:06:45;24.00;99.90
2647;DHT22;1333;50.958;6.770;2023-06-22T00:09:11;24.00;99.90
2647;DHT22;1333;50.958;6.770;2023-06-22T00:11:37;24.10;99.90
2647;DHT22;1333;50.958;6.770;2023-06-22T00:14:03;24.00;99.90
2647;DHT22;1333;50.958;6.770;2023-06-22T00:16:31;24.00;99.90
2647;DHT22;1333;50.958;6.770;2023-06-22T00:18:56;24.00;99.90
2647;DHT22;1333;50.958;6.770;2023-06-22T00:21:28;24.00;99.90
2647;DHT22;1333;50.958;6.770;2023-06-22T00:23:53;24.10;99.90
2647;DHT22;1333;50.958;6.770;2023-06-22T00:26:19;24.00;99.90
2647;DHT22;1333;50.958;6.770;2023-06-22T00:28:46;24.10;99.90
2647;DHT22;1333;50.958;6.770;2023-06-22T00:31:11;24.10;99.90
2647;DHT22;1333;50.958;6.770;2023-06-22T00:33:37;24.10;99.90
2647;DHT22;1333;50.958;6.770;2023-06-22T00:36:03;24.10;99.90
2647;DHT22;1333;50.958;6.770;2023-06-22T00:38:28;24.10;99.90
2647;DHT22;1333;50.958;6.770;2023-06-22T00:40:54;24.10;99.90
2647;DHT22;1333;50.958;6.770;2023-06-22T00:43:20;24.10;99.90
2647;DHT22;1333;50.958;6.770;2023-06-22T00:45:45;24.10;99.90
2647;DHT22;1333;50.958;6.770;2023-06-22T00:48:12;24.00;99.90
2647;DHT22;1333;50.958;6.770;2023-06-22T00:50:37;24.10;99.90
2647;DHT22;1333;50.958;6.770;2023-06-22T00:53:05;24.00;99.90
2647;DHT22;1333;50.958;6.770;2023-06-22T00:55:41;24.00;99.90
2647;DHT22;1333;50.958;6.770;2023-06-22T00:58:09;24.00;99.90
2647;DHT22;1333;50.958;6.770;2023-06-22T01:00:36;24.00;99.90
2647;DHT22;1333;50.958;6.770;2023-06-22T01:03:03;23.90;99.90
2647;DHT22;1333;50.958;6.770;2023-06-22T01:05:29;23.90;99.90
2647;DHT22;1333;50.958;6.770;2023-06-22T01:10:39;23.90;99.90
2647;DHT22;1333;50.958;6.770;2023-06-22T01:15:46;23.80;99.90
2647;DHT22;1333;50.958;6.770;2023-06-22T01:18:17;23.80;99.90
2647;DHT22;1333;50.958;6.770;2023-06-22T01:20:44;23.80;99.90
2647;DHT22;1333;50.958;6.770;2023-06-22T01:28:47;23.80;99.90
2647;DHT22;1333;50.958;6.770;2023-06-22T01:31:16;23.80;99.90
2647;DHT22;1333;50.958;6.770;2023-06-22T01:33:45;23.80;99.90
2647;DHT22;1333;50.958;6.770;2023-06-22T01:36:12;23.80;99.90
2647;DHT22;1333;50.958;6.770;2023-06-22T01:38:38;23.80;99.90
2647;DHT22;1333;50.958;6.770;2023-06-22T01:41:04;23.80;99.90
2647;DHT22;1333;50.958;6.770;2023-06-22T01:43:31;23.80;99.90
2647;DHT22;1333;50.958;6.770;2023-06-22T01:45:58;23.80;99.90
2647;DHT22;1333;50.958;6.770;2023-06-22T01:48:24;23.80;99.90
2647;DHT22;1333;50.958;6.770;2023-06-22T01:50:52;23.80;99.90
2647;DHT22;1333;50.958;6.770;2023-06-22T01:53:20;23.80;99.90
2647;DHT22;1333;50.958;6.770;2023-06-22T01:55:45;23.80;99.90
2647;DHT22;1333;50.958;6.770;2023-06-22T01:58:11;23.80;99.90
2647;DHT22;1333;50.958;6.770;2023-06-22T02:00:38;23.80;99.90
2647;DHT22;1333;50.958;6.770;2023-06-22T02:03:10;23.80;99.90
2647;DHT22;1333;50.958;6.770;2023-06-22T02:05:56;23.70;99.90
2647;DHT22;1333;50.958;6.770;2023-06-22T02:08:27;23.70;99.90
2647;DHT22;1333;50.958;6.770;2023-06-22T02:10:54;23.70;99.90
2647;DHT22;1333;50.958;6.770;2023-06-22T02:13:23;23.70;99.90
2647;DHT22;1333;50.958;6.770;2023-06-22T02:15:49;23.70;99.90
2647;DHT22;1333;50.958;6.770;2023-06-22T02:18:15;23.70;99.90
2647;DHT22;1333;50.958;6.770;2023-06-22T02:20:41;23.70;99.90
2647;DHT22;1333;50.958;6.770;2023-06-22T02:23:07;23.70;99.90
2647;DHT22;1333;50.958;6.770;2023-06-22T02:25:33;23.70;99.90
2647;DHT22;1333;50.958;6.770;2023-06-22T02:27:59;23.70;99.90
2647;DHT22;1333;50.958;6.770;2023-06-22T02:30:25;23.70;99.90
2647;DHT22;1333;50.958;6.770;2023-06-22T02:32:50;23.70;99.90
2647;DHT22;1333;50.958;6.770;2023-06-22T02:35:30;23.70;99.90
2647;DHT22;1333;50.958;6.770;2023-06-22T02:38:01;23.70;99.90
2647;DHT22;1333;50.958;6.770;2023-06-22T02:40:29;23.60;99.90
2647;DHT22;1333;50.958;6.770;2023-06-22T02:42:58;23.70;99.90
2647;DHT22;1333;50.958;6.770;2023-06-22T02:45:27;23.70;99.90
2647;DHT22;1333;50.958;6.770;2023-06-22T02:47:52;23.70;99.90
2647;DHT22;1333;50.958;6.770;2023-06-22T02:50:18;23.60;99.90
2647;DHT22;1333;50.958;6.770;2023-06-22T02:52:43;23.60;99.90
2647;DHT22;1333;50.958;6.770;2023-06-22T02:55:09;23.60;99.90
2647;DHT22;1333;50.958;6.770;2023-06-22T02:57:34;23.60;99.90
2647;DHT22;1333;50.958;6.770;2023-06-22T03:00:01;23.60;99.90
2647;DHT22;1333;50.958;6.770;2023-06-22T03:02:27;23.60;99.90
2647;DHT22;1333;50.958;6.770;2023-06-22T03:04:53;23.60;99.90
2647;DHT22;1333;50.958;6.770;2023-06-22T03:07:19;23.60;99.90
2647;DHT22;1333;50.958;6.770;2023-06-22T03:09:45;23.50;99.90
2647;DHT22;1333;50.958;6.770;2023-06-22T03:12:11;23.50;99.90
2647;DHT22;1333;50.958;6.770;2023-06-22T03:14:37;23.50;99.90
2647;DHT22;1333;50.958;6.770;2023-06-22T03:17:04;23.50;99.90
2647;DHT22;1333;50.958;6.770;2023-06-22T03:19:30;23.50;99.90
2647;DHT22;1333;50.958;6.770;2023-06-22T03:21:57;23.50;99.90
2647;DHT22;1333;50.958;6.770;2023-06-22T03:24:23;23.50;99.90
2647;DHT22;1333;50.958;6.770;2023-06-22T03:26:48;23.50;99.90
2647;DHT22;1333;50.958;6.770;2023-06-22T03:29:14;23.50;99.90
2647;DHT22;1333;50.958;6.770;2023-06-22T03:31:40;23.50;99.90
2647;DHT22;1333;50.958;6.770;2023-06-22T03:34:06;23.50;99.90
2647;DHT22;1333;50.958;6.770;2023-06-22T03:36:32;23.40;99.90
2647;DHT22;1333;50.958;6.770;2023-06-22T03:38:57;23.40;99.90
2647;DHT22;1333;50.958;6.770;2023-06-22T03:41:23;23.40;99.90
2647;DHT22;1333;50.958;6.770;2023-06-22T03:43:48;23.40;99.90
2647;DHT22;1333;50.958;6.770;2023-06-22T03:46:14;23.40;99.90
2647;DHT22;1333;50.958;6.770;2023-06-22T03:48:39;23.40;99.90
2647;DHT22;1333;50.958;6.770;2023-06-22T03:51:05;23.40;99.90
2647;DHT22;1333;50.958;6.770;2023-06-22T03:53:31;23.40;99.90
2647;DHT22;1333;50.958;6.770;2023-06-22T03:55:56;23.50;99.90
2647;DHT22;1333;50.958;6.770;2023-06-22T03:58:22;23.50;99.90
2647;DHT22;1333;50.958;6.770;2023-06-22T04:00:49;23.50;99.90
2647;DHT22;1333;50.958;6.770;2023-06-22T04:03:15;23.50;99.90
2647;DHT22;1333;50.958;6.770;2023-06-22T04:05:41;23.50;99.90
2647;DHT22;1333;50.958;6.770;2023-06-22T04:08:07;23.50;99.90
2647;DHT22;1333;50.958;6.770;2023-06-22T04:10:33;23.50;99.90
2647;DHT22;1333;50.958;6.770;2023-06-22T04:12:58;23.50;99.90
2647;DHT22;1333;50.958;6.770;2023-06-22T04:15:24;23.50;99.90
2647;DHT22;1333;50.958;6.770;2023-06-22T04:17:49;23.50;99.90
2647;DHT22;1333;50.958;6.770;2023-06-22T04:20:15;23.50;99.90
2647;DHT22;1333;50.958;6.770;2023-06-22T04:22:40;23.60;99.90
2647;DHT22;1333;50.958;6.770;2023-06-22T04:25:06;23.60;99.90
2647;DHT22;1333;50.958;6.770;2023-06-22T04:27:35;23.60;99.90
2647;DHT22;1333;50.958;6.770;2023-06-22T04:30:07;23.60;99.90
2647;DHT22;1333;50.958;6.770;2023-06-22T04:32:34;23.70;99.90
2647;DHT22;1333;50.958;6.770;2023-06-22T04:35:01;23.70;99.90
2647;DHT22;1333;50.958;6.770;2023-06-22T04:37:27;23.70;99.90
2647;DHT22;1333;50.958;6.770;2023-06-22T04:39:53;23.70;99.90
2647;DHT22;1333;50.958;6.770;2023-06-22T04:42:18;23.70;99.90
2647;DHT22;1333;50.958;6.770;2023-06-22T04:44:44;23.70;99.90
2647;DHT22;1333;50.958;6.770;2023-06-22T04:47:09;23.70;99.90
2647;DHT22;1333;50.958;6.770;2023-06-22T04:49:36;23.80;99.90
2647;DHT22;1333;50.958;6.770;2023-06-22T04:52:10;23.70;99.90
2647;DHT22;1333;50.958;6.770;2023-06-22T04:54:39;23.70;99.90
2647;DHT22;1333;50.958;6.770;2023-06-22T04:57:07;23.70;99.90
2647;DHT22;1333;50.958;6.770;2023-06-22T04:59:37;23.60;99.90
2647;DHT22;1333;50.958;6.770;2023-06-22T05:02:05;23.70;99.90
2647;DHT22;1333;50.958;6.770;2023-06-22T05:04:31;23.70;99.90
2647;DHT22;1333;50.958;6.770;2023-06-22T05:06:58;23.80;99.90
2647;DHT22;1333;50.958;6.770;2023-06-22T05:09:23;23.80;99.90
2647;DHT22;1333;50.958;6.770;2023-06-22T05:11:51;23.80;99.90
2647;DHT22;1333;50.958;6.770;2023-06-22T05:14:16;23.70;99.90
2647;DHT22;1333;50.958;6.770;2023-06-22T05:16:42;23.70;99.90
2647;DHT22;1333;50.958;6.770;2023-06-22T05:19:08;23.70;99.90
2647;DHT22;1333;50.958;6.770;2023-06-22T05:21:34;23.60;99.90
2647;DHT22;1333;50.958;6.770;2023-06-22T05:24:00;23.60;99.90
2647;DHT22;1333;50.958;6.770;2023-06-22T05:26:28;23.60;99.90
2647;DHT22;1333;50.958;6.770;2023-06-22T05:28:54;23.50;99.90
2647;DHT22;1333;50.958;6.770;2023-06-22T05:31:20;23.50;99.90
2647;DHT22;1333;50.958;6.770;2023-06-22T05:33:46;23.50;99.90
2647;DHT22;1333;50.958;6.770;2023-06-22T05:36:13;23.50;99.90
2647;DHT22;1333;50.958;6.770;2023-06-22T05:38:39;23.60;99.90
2647;DHT22;1333;50.958;6.770;2023-06-22T05:41:05;23.70;99.90
2647;DHT22;1333;50.958;6.770;2023-06-22T05:43:31;23.70;99.90
2647;DHT22;1333;50.958;6.770;2023-06-22T05:45:57;23.80;99.90
2647;DHT22;1333;50.958;6.770;2023-06-22T05:48:23;23.90;99.90
2647;DHT22;1333;50.958;6.770;2023-06-22T05:50:49;23.90;99.90
2647;DHT22;1333;50.958;6.770;2023-06-22T05:53:15;24.00;99.90
2647;DHT22;1333;50.958;6.770;2023-06-22T05:55:40;24.10;99.90
2647;DHT22;1333;50.958;6.770;2023-06-22T05:58:06;24.20;99.90
2647;DHT22;1333;50.958;6.770;2023-06-22T06:00:32;24.30;99.90
2647;DHT22;1333;50.958;6.770;2023-06-22T06:02:57;24.30;99.90
2647;DHT22;1333;50.958;6.770;2023-06-22T06:05:29;24.40;99.90
2647;DHT22;1333;50.958;6.770;2023-06-22T06:07:55;24.50;99.90
2647;DHT22;1333;50.958;6.770;2023-06-22T06:10:21;24.60;99.90
2647;DHT22;1333;50.958;6.770;2023-06-22T06:12:46;24.70;99.90
2647;DHT22;1333;50.958;6.770;2023-06-22T06:15:12;24.90;99.90
2647;DHT22;1333;50.958;6.770;2023-06-22T06:17:46;25.20;99.90
2647;DHT22;1333;50.958;6.770;2023-06-22T06:20:12;25.90;99.90
2647;DHT22;1333;50.958;6.770;2023-06-22T06:22:37;26.70;99.90
2647;DHT22;1333;50.958;6.770;2023-06-22T06:25:03;27.90;99.90
2647;DHT22;1333;50.958;6.770;2023-06-22T06:27:30;29.00;99.90
2647;DHT22;1333;50.958;6.770;2023-06-22T06:29:55;29.70;99.90
2647;DHT22;1333;50.958;6.770;2023-06-22T06:32:21;30.00;98.10
2647;DHT22;1333;50.958;6.770;2023-06-22T06:34:46;30.00;94.70
2647;DHT22;1333;50.958;6.770;2023-06-22T06:37:12;29.80;93.20
2647;DHT22;1333;50.958;6.770;2023-06-22T06:39:37;29.70;90.50
2647;DHT22;1333;50.958;6.770;2023-06-22T06:42:04;29.60;90.50
2647;DHT22;1333;50.958;6.770;2023-06-22T06:44:30;29.40;90.50
2647;DHT22;1333;50.958;6.770;2023-06-22T06:46:55;29.30;90.90
2647;DHT22;1333;50.958;6.770;2023-06-22T06:49:21;29.30;91.60
2647;DHT22;1333;50.958;6.770;2023-06-22T06:51:46;29.50;91.40
2647;DHT22;1333;50.958;6.770;2023-06-22T06:54:12;29.90;90.30
2647;DHT22;1333;50.958;6.770;2023-06-22T06:56:37;30.40;85.80
2647;DHT22;1333;50.958;6.770;2023-06-22T06:59:03;30.90;81.30
2647;DHT22;1333;50.958;6.770;2023-06-22T07:01:28;31.30;78.70
2647;DHT22;1333;50.958;6.770;2023-06-22T07:03:59;31.50;78.40
2647;DHT22;1333;50.958;6.770;2023-06-22T07:06:24;31.90;76.20
2647;DHT22;1333;50.958;6.770;2023-06-22T07:08:55;32.20;72.70
2647;DHT22;1333;50.958;6.770;2023-06-22T07:11:20;32.20;70.40
2647;DHT22;1333;50.958;6.770;2023-06-22T07:13:46;32.00;69.00
2647;DHT22;1333;50.958;6.770;2023-06-22T07:16:11;31.80;68.30
2647;DHT22;1333;50.958;6.770;2023-06-22T07:18:46;31.60;68.70
2647;DHT22;1333;50.958;6.770;2023-06-22T07:21:11;31.80;67.30
2647;DHT22;1333;50.958;6.770;2023-06-22T07:23:37;32.40;68.30
2647;DHT22;1333;50.958;6.770;2023-06-22T07:26:02;33.30;65.80
2647;DHT22;1333;50.958;6.770;2023-06-22T07:28:28;34.50;66.80
2647;DHT22;1333;50.958;6.770;2023-06-22T07:30:56;35.80;63.30
2647;DHT22;1333;50.958;6.770;2023-06-22T07:33:22;36.50;58.80
2647;DHT22;1333;50.958;6.770;2023-06-22T07:35:47;37.00;56.10
2647;DHT22;1333;50.958;6.770;2023-06-22T07:38:13;37.70;54.40
2647;DHT22;1333;50.958;6.770;2023-06-22T07:40:40;38.00;52.30
2647;DHT22;1333;50.958;6.770;2023-06-22T07:43:07;38.50;51.00
2647;DHT22;1333;50.958;6.770;2023-06-22T07:45:32;39.00;49.30
2647;DHT22;1333;50.958;6.770;2023-06-22T07:48:00;38.80;48.10
2647;DHT22;1333;50.958;6.770;2023-06-22T07:50:26;38.80;47.80
2647;DHT22;1333;50.958;6.770;2023-06-22T07:52:51;39.30;47.60
2647;DHT22;1333;50.958;6.770;2023-06-22T07:55:18;39.90;47.00
2647;DHT22;1333;50.958;6.770;2023-06-22T07:57:43;40.40;45.60
2647;DHT22;1333;50.958;6.770;2023-06-22T08:00:09;40.80;44.50
2647;DHT22;1333;50.958;6.770;2023-06-22T08:02:44;41.30;43.20
2647;DHT22;1333;50.958;6.770;2023-06-22T08:05:10;41.70;42.00
2647;DHT22;1333;50.958;6.770;2023-06-22T08:07:37;42.10;41.70
2647;DHT22;1333;50.958;6.770;2023-06-22T08:10:03;42.60;40.80
2647;DHT22;1333;50.958;6.770;2023-06-22T08:12:29;43.20;40.40
2647;DHT22;1333;50.958;6.770;2023-06-22T08:14:55;43.90;38.80
2647;DHT22;1333;50.958;6.770;2023-06-22T08:17:22;44.60;38.30
2647;DHT22;1333;50.958;6.770;2023-06-22T08:19:48;45.20;36.60
2647;DHT22;1333;50.958;6.770;2023-06-22T08:22:13;45.60;35.90
2647;DHT22;1333;50.958;6.770;2023-06-22T08:24:39;46.10;35.80
2647;DHT22;1333;50.958;6.770;2023-06-22T08:27:07;45.90;34.20
2647;DHT22;1333;50.958;6.770;2023-06-22T08:29:40;45.80;34.10
2647;DHT22;1333;50.958;6.770;2023-06-22T08:32:08;46.10;34.30
2647;DHT22;1333;50.958;6.770;2023-06-22T08:34:34;46.70;33.50
2647;DHT22;1333;50.958;6.770;2023-06-22T08:37:00;47.20;33.60
2647;DHT22;1333;50.958;6.770;2023-06-22T08:39:26;47.60;33.10
2647;DHT22;1333;50.958;6.770;2023-06-22T08:41:51;47.70;31.80
2647;DHT22;1333;50.958;6.770;2023-06-22T08:44:18;47.70;30.90
2647;DHT22;1333;50.958;6.770;2023-06-22T08:46:44;47.70;31.30
2647;DHT22;1333;50.958;6.770;2023-06-22T08:49:10;47.70;31.30
2647;DHT22;1333;50.958;6.770;2023-06-22T08:51:36;47.60;31.10
2647;DHT22;1333;50.958;6.770;2023-06-22T08:54:01;47.50;31.10
2647;DHT22;1333;50.958;6.770;2023-06-22T08:56:27;47.10;30.80
2647;DHT22;1333;50.958;6.770;2023-06-22T08:58:52;46.60;31.50
2647;DHT22;1333;50.958;6.770;2023-06-22T09:01:18;46.70;32.40
2647;DHT22;1333;50.958;6.770;2023-06-22T09:03:44;46.90;31.90
2647;DHT22;1333;50.958;6.770;2023-06-22T09:06:22;46.60;31.30
2647;DHT22;1333;50.958;6.770;2023-06-22T09:08:47;46.10;32.10
2647;DHT22;1333;50.958;6.770;2023-06-22T09:11:14;45.40;31.80
2647;DHT22;1333;50.958;6.770;2023-06-22T09:13:39;44.70;32.60
2647;DHT22;1333;50.958;6.770;2023-06-22T09:16:05;44.50;32.80
2647;DHT22;1333;50.958;6.770;2023-06-22T09:18:32;44.40;33.00
2647;DHT22;1333;50.958;6.770;2023-06-22T09:20:57;44.30;32.90
2647;DHT22;1333;50.958;6.770;2023-06-22T09:23:23;44.80;33.00
2647;DHT22;1333;50.958;6.770;2023-06-22T09:25:48;45.40;32.90
2647;DHT22;1333;50.958;6.770;2023-06-22T09:28:14;45.80;32.40
2647;DHT22;1333;50.958;6.770;2023-06-22T09:30:40;45.90;31.90
2647;DHT22;1333;50.958;6.770;2023-06-22T09:33:06;45.70;31.80
2647;DHT22;1333;50.958;6.770;2023-06-22T09:35:31;45.30;32.00
2647;DHT22;1333;50.958;6.770;2023-06-22T09:37:57;45.30;32.60
2647;DHT22;1333;50.958;6.770;2023-06-22T09:40:22;45.30;32.20
2647;DHT22;1333;50.958;6.770;2023-06-22T09:42:48;45.10;32.30
2647;DHT22;1333;50.958;6.770;2023-06-22T09:45:13;44.70;32.30
2647;DHT22;1333;50.958;6.770;2023-06-22T09:47:39;44.10;32.20
2647;DHT22;1333;50.958;6.770;2023-06-22T09:50:05;43.30;32.80
2647;DHT22;1333;50.958;6.770;2023-06-22T09:52:31;42.70;33.50
2647;DHT22;1333;50.958;6.770;2023-06-22T09:54:56;42.20;34.10
2647;DHT22;1333;50.958;6.770;2023-06-22T09:57:22;41.70;34.80
2647;DHT22;1333;50.958;6.770;2023-06-22T09:59:47;40.90;35.30
2647;DHT22;1333;50.958;6.770;2023-06-22T10:02:13;40.00;35.90
2647;DHT22;1333;50.958;6.770;2023-06-22T10:04:39;38.90;37.10
2647;DHT22;1333;50.958;6.770;2023-06-22T10:07:05;37.70;38.40
2647;DHT22;1333;50.958;6.770;2023-06-22T10:09:32;36.70;39.60
2647;DHT22;1333;50.958;6.770;2023-06-22T10:11:58;35.70;40.80
2647;DHT22;1333;50.958;6.770;2023-06-22T10:14:23;34.70;42.40
2647;DHT22;1333;50.958;6.770;2023-06-22T10:16:52;33.60;43.90
2647;DHT22;1333;50.958;6.770;2023-06-22T10:19:17;32.80;45.20
2647;DHT22;1333;50.958;6.770;2023-06-22T10:21:43;32.10;47.10
2647;DHT22;1333;50.958;6.770;2023-06-22T10:24:08;31.50;50.40
2647;DHT22;1333;50.958;6.770;2023-06-22T10:26:35;31.00;54.50
2647;DHT22;1333;50.958;6.770;2023-06-22T10:29:02;30.20;64.10
2647;DHT22;1333;50.958;6.770;2023-06-22T10:31:27;29.90;72.30
2647;DHT22;1333;50.958;6.770;2023-06-22T10:33:54;29.50;80.40
2647;DHT22;1333;50.958;6.770;2023-06-22T10:36:21;28.90;99.90
2647;DHT22;1333;50.958;6.770;2023-06-22T10:38:46;28.50;99.90
2647;DHT22;1333;50.958;6.770;2023-06-22T10:41:13;28.10;99.90
2647;DHT22;1333;50.958;6.770;2023-06-22T10:43:39;27.80;99.90
2647;DHT22;1333;50.958;6.770;2023-06-22T10:46:04;27.50;99.90
2647;DHT22;1333;50.958;6.770;2023-06-22T10:48:30;27.10;99.90
2647;DHT22;1333;50.958;6.770;2023-06-22T10:50:55;26.80;99.90
2647;DHT22;1333;50.958;6.770;2023-06-22T10:53:21;26.70;99.90
2647;DHT22;1333;50.958;6.770;2023-06-22T10:55:47;26.50;99.90
2647;DHT22;1333;50.958;6.770;2023-06-22T10:58:12;26.40;99.90
2647;DHT22;1333;50.958;6.770;2023-06-22T11:00:38;26.30;99.90
2647;DHT22;1333;50.958;6.770;2023-06-22T11:03:03;26.10;99.90
2647;DHT22;1333;50.958;6.770;2023-06-22T11:05:29;26.00;99.90
2647;DHT22;1333;50.958;6.770;2023-06-22T11:07:54;25.90;99.90
2647;DHT22;1333;50.958;6.770;2023-06-22T11:10:20;25.80;99.90
2647;DHT22;1333;50.958;6.770;2023-06-22T11:12:45;25.70;99.90
2647;DHT22;1333;50.958;6.770;2023-06-22T11:15:11;25.70;99.90
2647;DHT22;1333;50.958;6.770;2023-06-22T11:17:37;25.70;99.90
2647;DHT22;1333;50.958;6.770;2023-06-22T11:20:02;25.80;99.90
2647;DHT22;1333;50.958;6.770;2023-06-22T11:22:36;25.90;99.90
2647;DHT22;1333;50.958;6.770;2023-06-22T11:25:02;26.10;99.90
2647;DHT22;1333;50.958;6.770;2023-06-22T11:27:27;26.30;99.90
2647;DHT22;1333;50.958;6.770;2023-06-22T11:29:53;26.50;99.90
2647;DHT22;1333;50.958;6.770;2023-06-22T11:32:18;26.80;99.90
2647;DHT22;1333;50.958;6.770;2023-06-22T11:34:44;27.00;99.90
2647;DHT22;1333;50.958;6.770;2023-06-22T11:37:10;27.30;99.90
2647;DHT22;1333;50.958;6.770;2023-06-22T11:39:35;27.90;99.90
2647;DHT22;1333;50.958;6.770;2023-06-22T11:42:01;29.10;99.90
2647;DHT22;1333;50.958;6.770;2023-06-22T11:44:26;30.20;99.90
2647;DHT22;1333;50.958;6.770;2023-06-22T11:46:52;30.50;99.90
2647;DHT22;1333;50.958;6.770;2023-06-22T11:49:17;30.40;99.90
2647;DHT22;1333;50.958;6.770;2023-06-22T11:51:43;30.10;99.90
2647;DHT22;1333;50.958;6.770;2023-06-22T11:54:08;29.80;99.90
2647;DHT22;1333;50.958;6.770;2023-06-22T11:56:34;29.50;99.90
2647;DHT22;1333;50.958;6.770;2023-06-22T11:58:59;29.30;99.90
2647;DHT22;1333;50.958;6.770;2023-06-22T12:01:25;29.30;99.90
2647;DHT22;1333;50.958;6.770;2023-06-22T12:03:50;29.40;99.90
2647;DHT22;1333;50.958;6.770;2023-06-22T12:06:16;29.70;99.90
2647;DHT22;1333;50.958;6.770;2023-06-22T12:08:41;30.20;99.90
2647;DHT22;1333;50.958;6.770;2023-06-22T12:11:07;30.80;99.90
2647;DHT22;1333;50.958;6.770;2023-06-22T12:13:32;31.20;99.90
2647;DHT22;1333;50.958;6.770;2023-06-22T12:15:58;31.50;99.90
2647;DHT22;1333;50.958;6.770;2023-06-22T12:18:23;31.70;99.90
2647;DHT22;1333;50.958;6.770;2023-06-22T12:20:49;31.80;99.90
2647;DHT22;1333;50.958;6.770;2023-06-22T12:23:15;32.00;99.90
2647;DHT22;1333;50.958;6.770;2023-06-22T12:25:40;32.10;99.90
2647;DHT22;1333;50.958;6.770;2023-06-22T12:28:06;32.10;99.90
2647;DHT22;1333;50.958;6.770;2023-06-22T12:30:33;32.10;99.90
2647;DHT22;1333;50.958;6.770;2023-06-22T12:32:59;32.20;99.90
2647;DHT22;1333;50.958;6.770;2023-06-22T12:35:24;32.30;99.90
2647;DHT22;1333;50.958;6.770;2023-06-22T12:37:50;32.20;99.90
2647;DHT22;1333;50.958;6.770;2023-06-22T12:40:15;32.10;99.90
2647;DHT22;1333;50.958;6.770;2023-06-22T12:42:41;32.10;99.90
2647;DHT22;1333;50.958;6.770;2023-06-22T12:45:08;32.20;99.90
2647;DHT22;1333;50.958;6.770;2023-06-22T12:47:33;32.60;99.90
2647;DHT22;1333;50.958;6.770;2023-06-22T12:49:59;32.90;99.90
2647;DHT22;1333;50.958;6.770;2023-06-22T12:52:24;32.90;99.90
2647;DHT22;1333;50.958;6.770;2023-06-22T12:54:50;32.80;99.90
2647;DHT22;1333;50.958;6.770;2023-06-22T12:57:16;32.70;99.90
2647;DHT22;1333;50.958;6.770;2023-06-22T12:59:43;32.90;99.90
2647;DHT22;1333;50.958;6.770;2023-06-22T13:02:08;33.10;99.90
2647;DHT22;1333;50.958;6.770;2023-06-22T13:04:34;33.30;99.90
2647;DHT22;1333;50.958;6.770;2023-06-22T13:07:00;33.70;99.90
2647;DHT22;1333;50.958;6.770;2023-06-22T13:09:25;33.90;99.90
2647;DHT22;1333;50.958;6.770;2023-06-22T13:11:50;34.10;99.90
2647;DHT22;1333;50.958;6.770;2023-06-22T13:14:17;34.20;99.90
2647;DHT22;1333;50.958;6.770;2023-06-22T13:16:43;34.20;99.90
2647;DHT22;1333;50.958;6.770;2023-06-22T13:19:08;34.10;99.90
2647;DHT22;1333;50.958;6.770;2023-06-22T13:21:34;34.00;99.90
2647;DHT22;1333;50.958;6.770;2023-06-22T13:24:00;34.00;99.90
2647;DHT22;1333;50.958;6.770;2023-06-22T13:26:26;33.90;99.90
2647;DHT22;1333;50.958;6.770;2023-06-22T13:28:54;33.70;99.90
2647;DHT22;1333;50.958;6.770;2023-06-22T13:31:19;33.60;99.90
2647;DHT22;1333;50.958;6.770;2023-06-22T13:33:45;33.40;99.90
2647;DHT22;1333;50.958;6.770;2023-06-22T13:36:13;33.00;99.90
2647;DHT22;1333;50.958;6.770;2023-06-22T13:38:38;32.90;99.90
2647;DHT22;1333;50.958;6.770;2023-06-22T13:41:07;32.90;99.90
2647;DHT22;1333;50.958;6.770;2023-06-22T13:43:32;33.00;99.90
2647;DHT22;1333;50.958;6.770;2023-06-22T13:45:58;33.40;99.90
2647;DHT22;1333;50.958;6.770;2023-06-22T13:48:23;33.70;99.90
2647;DHT22;1333;50.958;6.770;2023-06-22T13:50:51;33.90;99.90
2647;DHT22;1333;50.958;6.770;2023-06-22T13:53:17;33.90;99.90
2647;DHT22;1333;50.958;6.770;2023-06-22T13:55:42;33.80;99.90
2647;DHT22;1333;50.958;6.770;2023-06-22T13:58:08;33.70;99.90
2647;DHT22;1333;50.958;6.770;2023-06-22T14:00:33;33.50;99.90
2647;DHT22;1333;50.958;6.770;2023-06-22T14:02:59;33.60;99.90
2647;DHT22;1333;50.958;6.770;2023-06-22T14:05:24;33.60;99.90
2647;DHT22;1333;50.958;6.770;2023-06-22T14:07:50;33.40;99.90
2647;DHT22;1333;50.958;6.770;2023-06-22T14:10:15;33.10;99.90
2647;DHT22;1333;50.958;6.770;2023-06-22T14:12:41;32.60;99.90
2647;DHT22;1333;50.958;6.770;2023-06-22T14:15:06;32.30;99.90
2647;DHT22;1333;50.958;6.770;2023-06-22T14:17:32;31.90;99.90
2647;DHT22;1333;50.958;6.770;2023-06-22T14:19:58;31.80;99.90
2647;DHT22;1333;50.958;6.770;2023-06-22T14:22:23;31.70;99.90
2647;DHT22;1333;50.958;6.770;2023-06-22T14:24:49;31.80;99.90
2647;DHT22;1333;50.958;6.770;2023-06-22T14:27:15;31.80;99.90
2647;DHT22;1333;50.958;6.770;2023-06-22T14:29:40;31.60;99.90
2647;DHT22;1333;50.958;6.770;2023-06-22T14:32:06;31.50;99.90
2647;DHT22;1333;50.958;6.770;2023-06-22T14:34:33;31.30;99.90
2647;DHT22;1333;50.958;6.770;2023-06-22T14:37:01;31.00;99.90
2647;DHT22;1333;50.958;6.770;2023-06-22T14:39:27;30.70;99.90
2647;DHT22;1333;50.958;6.770;2023-06-22T14:41:52;30.40;99.90
2647;DHT22;1333;50.958;6.770;2023-06-22T14:44:18;30.30;99.90
2647;DHT22;1333;50.958;6.770;2023-06-22T14:46:43;30.40;99.90
2647;DHT22;1333;50.958;6.770;2023-06-22T14:49:09;30.50;99.90
2647;DHT22;1333;50.958;6.770;2023-06-22T14:51:34;30.70;99.90
2647;DHT22;1333;50.958;6.770;2023-06-22T14:54:00;30.70;99.90
2647;DHT22;1333;50.958;6.770;2023-06-22T14:56:25;30.70;99.90
2647;DHT22;1333;50.958;6.770;2023-06-22T14:58:51;30.80;99.90
2647;DHT22;1333;50.958;6.770;2023-06-22T15:01:17;30.80;99.90
2647;DHT22;1333;50.958;6.770;2023-06-22T15:03:43;30.60;99.90
2647;DHT22;1333;50.958;6.770;2023-06-22T15:06:09;30.40;99.90
2647;DHT22;1333;50.958;6.770;2023-06-22T15:08:36;30.10;99.90
2647;DHT22;1333;50.958;6.770;2023-06-22T15:11:01;29.70;99.90
2647;DHT22;1333;50.958;6.770;2023-06-22T15:13:27;29.40;99.90
2647;DHT22;1333;50.958;6.770;2023-06-22T15:15:53;29.10;99.90
2647;DHT22;1333;50.958;6.770;2023-06-22T15:18:18;28.80;99.90
2647;DHT22;1333;50.958;6.770;2023-06-22T15:20:44;28.50;99.90
2647;DHT22;1333;50.958;6.770;2023-06-22T15:23:11;28.10;99.90
2647;DHT22;1333;50.958;6.770;2023-06-22T15:25:37;27.80;99.90
2647;DHT22;1333;50.958;6.770;2023-06-22T15:28:02;27.40;99.90
2647;DHT22;1333;50.958;6.770;2023-06-22T15:30:28;27.00;99.90
2647;DHT22;1333;50.958;6.770;2023-06-22T15:32:54;26.40;99.90
2647;DHT22;1333;50.958;6.770;2023-06-22T15:35:20;25.90;99.90
2647;DHT22;1333;50.958;6.770;2023-06-22T15:37:46;25.40;99.90
2647;DHT22;1333;50.958;6.770;2023-06-22T15:40:11;24.90;99.90
2647;DHT22;1333;50.958;6.770;2023-06-22T15:42:37;24.60;99.90
2647;DHT22;1333;50.958;6.770;2023-06-22T15:45:04;24.40;99.90
2647;DHT22;1333;50.958;6.770;2023-06-22T15:47:30;24.20;99.90
2647;DHT22;1333;50.958;6.770;2023-06-22T15:49:55;24.10;99.90
2647;DHT22;1333;50.958;6.770;2023-06-22T15:52:21;23.90;99.90
2647;DHT22;1333;50.958;6.770;2023-06-22T15:54:46;23.80;99.90
2647;DHT22;1333;50.958;6.770;2023-06-22T15:57:12;23.80;99.90
2647;DHT22;1333;50.958;6.770;2023-06-22T15:59:41;23.70;99.90
2647;DHT22;1333;50.958;6.770;2023-06-22T16:02:08;23.60;99.90
2647;DHT22;1333;50.958;6.770;2023-06-22T16:04:34;23.60;99.90
2647;DHT22;1333;50.958;6.770;2023-06-22T16:07:00;23.50;99.90